createdAt,value
2023-03-19T00:00:56.303Z,96.03
2023-03-19T00:03:24.235Z,120.90
2023-03-19T00:05:53.813Z,409.35
2023-03-19T00:08:22.678Z,380.80
2023-03-19T00:10:50.947Z,113.63
2023-03-19T00:13:20.590Z,419.95
2023-03-19T00:15:48.523Z,94.45
2023-03-19T00:18:16.311Z,113.15
2023-03-19T00:20:44.789Z,125.15
2023-03-19T00:23:12.694Z,173.98
2023-03-19T00:25:40.500Z,452.80
2023-03-19T00:28:08.258Z,428.20
2023-03-19T00:30:37.503Z,166.45
2023-03-19T00:33:05.420Z,109.85
2023-03-19T00:35:34.356Z,92.55
2023-03-19T00:38:02.239Z,175.45
2023-03-19T00:40:30.523Z,83.80
2023-03-19T00:42:58.296Z,265.45
2023-03-19T00:45:26.407Z,105.57
2023-03-19T00:47:56.300Z,94.35
2023-03-19T00:50:25.068Z,166.68
2023-03-19T00:52:53.219Z,110.43
2023-03-19T00:55:20.963Z,81.90
2023-03-19T01:01:07.379Z,103.03
2023-03-19T01:03:47.209Z,96.15
2023-03-19T01:07:05.738Z,251.57
2023-03-19T01:09:33.728Z,156.48
2023-03-19T01:12:04.760Z,121.75
2023-03-19T01:14:32.839Z,108.13
2023-03-19T01:17:01.088Z,72.95
2023-03-19T01:19:32.434Z,147.07
2023-03-19T01:22:00.618Z,115.10
2023-03-19T01:24:31.721Z,183.40
2023-03-19T01:26:59.958Z,81.18
2023-03-19T01:29:27.838Z,87.53
2023-03-19T01:31:55.990Z,91.22
2023-03-19T01:34:24.238Z,176.65
2023-03-19T01:36:53.412Z,156.82
2023-03-19T01:39:21.286Z,325.17
2023-03-19T01:41:49.166Z,70.43
2023-03-19T01:44:28.460Z,259.52
2023-03-19T01:46:58.599Z,286.65
2023-03-19T01:49:28.964Z,248.18
2023-03-19T01:52:00.372Z,162.07
2023-03-19T01:54:30.613Z,200.00
2023-03-19T01:57:03.374Z,73.00
2023-03-19T01:59:34.825Z,64.57
2023-03-19T02:02:07.822Z,100.15
2023-03-19T02:04:37.871Z,114.63
2023-03-19T02:07:08.678Z,88.93
2023-03-19T02:09:37.414Z,109.57
2023-03-19T02:12:06.106Z,67.00
2023-03-19T02:14:33.850Z,122.78
2023-03-19T02:17:01.860Z,102.78
2023-03-19T02:19:36.687Z,209.32
2023-03-19T02:22:07.464Z,84.90
2023-03-19T02:24:39.955Z,82.45
2023-03-19T02:27:09.678Z,81.30
2023-03-19T02:29:38.972Z,66.55
2023-03-19T02:32:07.188Z,80.40
2023-03-19T02:34:38.343Z,76.63
2023-03-19T02:37:12.593Z,86.88
2023-03-19T02:39:48.158Z,102.03
2023-03-19T02:42:19.782Z,129.40
2023-03-19T02:44:47.745Z,219.63
2023-03-19T02:47:16.175Z,106.10
2023-03-19T02:49:44.030Z,183.38
2023-03-19T02:52:12.278Z,191.77
2023-03-19T02:54:40.151Z,172.48
2023-03-19T02:57:08.243Z,73.75
2023-03-19T02:59:37.431Z,112.88
2023-03-19T03:02:05.397Z,170.18
2023-03-19T03:04:34.724Z,162.13
2023-03-19T03:07:03.356Z,153.32
2023-03-19T03:09:31.128Z,92.90
2023-03-19T03:11:59.055Z,72.28
2023-03-19T03:14:26.968Z,123.95
2023-03-19T03:16:57.348Z,111.03
2023-03-19T03:19:25.407Z,155.52
2023-03-19T03:21:53.233Z,45.42
2023-03-19T03:24:22.030Z,71.30
2023-03-19T03:26:49.876Z,67.53
2023-03-19T03:29:18.232Z,90.22
2023-03-19T03:31:46.320Z,58.90
2023-03-19T03:34:15.694Z,75.93
2023-03-19T03:36:43.462Z,58.45
2023-03-19T03:39:11.810Z,80.75
2023-03-19T03:41:39.634Z,72.82
2023-03-19T03:44:08.498Z,57.60
2023-03-19T03:46:36.743Z,98.45
2023-03-19T03:49:04.685Z,82.15
2023-03-19T03:51:33.969Z,59.58
2023-03-19T03:54:02.209Z,69.22
2023-03-19T03:56:30.168Z,146.90
2023-03-19T03:58:58.005Z,62.88
2023-03-19T04:01:25.861Z,155.85
2023-03-19T04:03:54.341Z,79.20
2023-03-19T04:06:24.135Z,85.47
2023-03-19T04:08:53.258Z,118.68
2023-03-19T04:11:21.768Z,53.40
2023-03-19T04:13:49.519Z,58.33
2023-03-19T04:16:17.577Z,54.38
2023-03-19T04:18:45.508Z,92.05
2023-03-19T04:21:13.672Z,75.93
2023-03-19T04:23:41.718Z,88.07
2023-03-19T04:26:12.286Z,53.83
2023-03-19T04:28:40.320Z,55.00
2023-03-19T04:31:09.322Z,61.80
2023-03-19T04:33:37.596Z,53.05
2023-03-19T04:36:05.834Z,56.90
2023-03-19T04:38:33.755Z,53.83
2023-03-19T04:41:01.686Z,43.28
2023-03-19T04:43:30.967Z,49.83
2023-03-19T04:45:59.545Z,63.72
2023-03-19T04:48:27.509Z,43.67
2023-03-19T04:50:57.129Z,42.85
2023-03-19T04:53:25.627Z,46.70
2023-03-19T04:55:53.476Z,50.72
2023-03-19T04:58:21.869Z,61.50
2023-03-19T05:00:51.025Z,43.33
2023-03-19T05:03:18.951Z,56.63
2023-03-19T05:05:46.822Z,69.53
2023-03-19T05:08:14.679Z,58.97
2023-03-19T05:10:42.713Z,58.08
2023-03-19T05:13:10.462Z,45.97
2023-03-19T05:15:38.806Z,51.03
2023-03-19T05:18:08.714Z,54.97
2023-03-19T05:20:37.233Z,50.78
2023-03-19T05:23:05.362Z,54.42
2023-03-19T05:25:35.366Z,55.40
2023-03-19T05:28:03.286Z,53.00
2023-03-19T05:30:31.687Z,45.97
2023-03-19T05:32:59.863Z,47.00
2023-03-19T05:35:30.569Z,53.50
2023-03-19T05:37:58.904Z,48.15
2023-03-19T05:40:28.002Z,52.05
2023-03-19T05:42:55.843Z,48.85
2023-03-19T05:45:23.592Z,45.85
2023-03-19T05:47:51.382Z,49.88
2023-03-19T05:50:19.849Z,44.50
2023-03-19T05:52:49.093Z,43.17
2023-03-19T05:55:17.451Z,39.53
2023-03-19T05:57:45.582Z,37.28
2023-03-19T06:00:14.898Z,38.60
2023-03-19T06:02:44.107Z,34.15
2023-03-19T06:05:12.333Z,37.20
2023-03-19T06:07:40.081Z,31.15
2023-03-19T06:10:10.825Z,32.95
2023-03-19T06:12:38.561Z,29.73
2023-03-19T06:15:07.508Z,30.58
2023-03-19T06:17:35.358Z,29.15
2023-03-19T06:20:03.450Z,33.30
2023-03-19T06:22:31.301Z,29.45
2023-03-19T06:24:59.126Z,26.98
2023-03-19T06:27:28.253Z,35.40
2023-03-19T06:29:56.102Z,31.52
2023-03-19T06:32:23.903Z,31.73
2023-03-19T06:34:51.768Z,26.50
2023-03-19T06:37:19.547Z,31.77
2023-03-19T06:39:47.398Z,29.02
2023-03-19T06:42:15.367Z,29.95
2023-03-19T06:44:44.582Z,31.02
2023-03-19T06:47:12.781Z,29.42
2023-03-19T06:49:40.741Z,28.50
2023-03-19T06:52:08.854Z,24.33
2023-03-19T06:54:38.354Z,28.35
2023-03-19T06:57:06.412Z,27.23
2023-03-19T06:59:34.181Z,25.63
2023-03-19T07:02:03.498Z,22.58
2023-03-19T07:04:31.397Z,19.48
2023-03-19T07:06:59.125Z,21.77
2023-03-19T07:09:27.490Z,20.27
2023-03-19T07:11:55.311Z,20.45
2023-03-19T07:14:23.219Z,18.75
2023-03-19T07:16:51.081Z,20.90
2023-03-19T07:19:20.658Z,20.42
2023-03-19T07:21:48.468Z,21.90
2023-03-19T07:24:16.489Z,20.27
2023-03-19T07:26:44.864Z,17.75
2023-03-19T07:29:12.671Z,18.77
2023-03-19T07:31:41.031Z,18.45
2023-03-19T07:34:09.058Z,17.10
2023-03-19T07:36:38.146Z,18.20
2023-03-19T07:39:06.017Z,16.60
2023-03-19T07:41:33.798Z,16.63
2023-03-19T07:44:01.523Z,13.98
2023-03-19T07:46:29.421Z,13.98
2023-03-19T07:48:57.247Z,14.95
2023-03-19T07:51:25.074Z,14.57
2023-03-19T07:53:54.301Z,14.00
2023-03-19T07:56:22.071Z,14.98
2023-03-19T07:58:49.948Z,13.95
2023-03-19T08:01:17.821Z,13.70
2023-03-19T08:03:45.576Z,14.52
2023-03-19T08:06:13.829Z,13.45
2023-03-19T08:08:41.782Z,12.75
2023-03-19T08:11:11.700Z,14.40
2023-03-19T08:13:39.444Z,14.30
2023-03-19T08:16:07.621Z,12.00
2023-03-19T08:18:35.876Z,12.45
2023-03-19T08:21:03.926Z,12.63
2023-03-19T08:23:31.886Z,13.73
2023-03-19T08:25:59.666Z,13.43
2023-03-19T08:28:28.880Z,12.70
2023-03-19T08:30:56.884Z,13.35
2023-03-19T08:33:24.917Z,12.75
2023-03-19T08:35:53.118Z,18.15
2023-03-19T08:38:21.105Z,14.02
2023-03-19T08:40:49.178Z,14.57
2023-03-19T08:43:16.952Z,11.65
2023-03-19T08:45:46.181Z,13.00
2023-03-19T08:48:13.934Z,12.85
2023-03-19T08:50:41.818Z,12.45
2023-03-19T08:53:09.682Z,11.77
2023-03-19T08:55:37.666Z,13.20
2023-03-19T08:58:05.536Z,12.50
2023-03-19T09:00:33.584Z,12.77
2023-03-19T09:03:02.813Z,13.77
2023-03-19T09:05:30.613Z,13.10
2023-03-19T09:07:58.470Z,10.85
2023-03-19T09:10:26.568Z,12.30
2023-03-19T09:12:54.423Z,11.35
2023-03-19T09:15:22.214Z,11.27
2023-03-19T09:17:50.022Z,13.07
2023-03-19T09:20:19.364Z,11.65
2023-03-19T09:22:47.391Z,14.02
2023-03-19T09:25:15.726Z,11.27
2023-03-19T09:27:43.550Z,11.40
2023-03-19T09:30:13.331Z,11.98
2023-03-19T09:32:41.437Z,13.07
2023-03-19T09:35:10.063Z,13.45
2023-03-19T09:37:39.171Z,13.10
2023-03-19T09:40:08.882Z,10.88
2023-03-19T09:42:50.078Z,11.40
2023-03-19T09:45:19.912Z,10.35
2023-03-19T09:47:50.920Z,10.25
2023-03-19T09:50:22.481Z,13.30
2023-03-19T09:52:57.759Z,15.88
2023-03-19T09:55:42.163Z,12.65
2023-03-19T09:58:16.429Z,11.63
2023-03-19T10:00:47.875Z,12.10
2023-03-19T10:03:30.981Z,10.98
2023-03-19T10:06:07.883Z,11.80
2023-03-19T10:08:50.533Z,11.10
2023-03-19T10:11:36.497Z,11.52
2023-03-19T10:14:18.718Z,11.13
2023-03-19T10:16:50.207Z,12.80
2023-03-19T10:19:23.413Z,11.90
2023-03-19T10:21:57.079Z,11.65
2023-03-19T10:24:31.392Z,12.68
2023-03-19T10:27:02.953Z,12.13
2023-03-19T10:29:30.689Z,11.38
2023-03-19T10:32:12.591Z,11.60
2023-03-19T10:34:43.368Z,12.88
2023-03-19T10:37:17.297Z,10.18
2023-03-19T10:39:48.045Z,12.05
2023-03-19T10:42:40.163Z,14.35
2023-03-19T10:45:20.385Z,12.65
2023-03-19T10:47:48.470Z,12.70
2023-03-19T10:50:19.372Z,11.02
2023-03-19T10:52:52.526Z,11.75
2023-03-19T10:55:26.241Z,10.07
2023-03-19T10:58:02.731Z,11.85
2023-03-19T11:00:33.502Z,14.15
2023-03-19T11:03:04.728Z,13.50
2023-03-19T11:05:35.340Z,15.15
2023-03-19T11:08:04.941Z,18.23
2023-03-19T11:10:35.960Z,18.15
2023-03-19T11:13:07.410Z,15.38
2023-03-19T11:15:38.002Z,15.40
2023-03-19T11:18:16.946Z,16.10
2023-03-19T11:20:50.749Z,13.57
2023-03-19T11:23:20.542Z,18.20
2023-03-19T11:25:52.598Z,14.88
2023-03-19T11:28:25.647Z,17.02
2023-03-19T11:31:00.184Z,17.48
2023-03-19T11:33:45.744Z,17.65
2023-03-19T11:36:19.300Z,18.35
2023-03-19T11:39:03.792Z,18.98
2023-03-19T11:41:50.808Z,21.73
2023-03-19T11:44:27.408Z,16.35
2023-03-19T11:47:06.836Z,17.85
2023-03-19T11:49:48.225Z,18.23
2023-03-19T11:52:22.020Z,18.15
2023-03-19T11:55:06.043Z,22.50
2023-03-19T11:57:54.671Z,19.90
2023-03-19T12:00:31.352Z,18.30
2023-03-19T12:03:37.944Z,20.83
2023-03-19T12:06:12.164Z,15.60
2023-03-19T12:08:46.588Z,18.77
2023-03-19T12:11:25.413Z,14.65
2023-03-19T12:14:11.045Z,11.10
2023-03-19T12:16:57.406Z,8.43
2023-03-19T12:19:38.860Z,8.75
2023-03-19T12:22:18.000Z,10.43
2023-03-19T12:25:04.326Z,9.20
2023-03-19T12:27:38.384Z,9.00
2023-03-19T12:30:20.363Z,12.52
2023-03-19T12:33:11.107Z,12.68
2023-03-19T12:35:40.344Z,21.23
2023-03-19T12:38:16.620Z,18.13
2023-03-19T12:40:49.870Z,19.60
2023-03-19T12:43:23.460Z,19.15
2023-03-19T12:45:59.216Z,22.80
2023-03-19T12:48:30.596Z,22.92
2023-03-19T12:51:05.496Z,19.02
2023-03-19T12:53:41.833Z,19.35
2023-03-19T12:56:15.977Z,23.65
2023-03-19T12:58:54.570Z,23.67
2023-03-19T13:01:28.146Z,22.95
2023-03-19T13:04:00.395Z,22.05
2023-03-19T13:06:32.191Z,23.73
2023-03-19T13:09:06.299Z,24.50
2023-03-19T13:11:43.152Z,25.10
2023-03-19T13:14:20.998Z,21.63
2023-03-19T13:16:57.498Z,21.95
2023-03-19T13:19:32.054Z,22.35
2023-03-19T13:22:04.129Z,20.55
2023-03-19T13:24:35.663Z,18.33
2023-03-19T13:27:04.152Z,18.33
2023-03-19T13:29:33.948Z,19.83
2023-03-19T13:32:05.926Z,21.83
2023-03-19T13:34:35.901Z,18.85
2023-03-19T13:37:13.099Z,18.13
2023-03-19T13:39:42.182Z,16.95
2023-03-19T13:42:36.264Z,16.95
2023-03-19T13:45:05.412Z,15.80
2023-03-19T13:47:44.514Z,15.18
2023-03-19T13:50:23.539Z,16.95
2023-03-19T13:52:53.563Z,14.40
2023-03-19T13:55:34.591Z,17.58
2023-03-19T13:58:27.865Z,13.32
2023-03-19T14:01:01.348Z,19.92
2023-03-19T14:03:33.297Z,12.75
2023-03-19T14:06:01.803Z,12.60
2023-03-19T14:08:33.694Z,14.90
2023-03-19T14:11:03.696Z,12.27
2023-03-19T14:13:35.926Z,13.85
2023-03-19T14:16:17.871Z,14.48
2023-03-19T14:18:49.694Z,14.30
2023-03-19T14:21:32.742Z,13.95
2023-03-19T14:27:21.299Z,14.90
2023-03-19T14:29:51.016Z,13.80
2023-03-19T14:32:24.729Z,12.40
2023-03-19T14:34:56.078Z,11.43
2023-03-19T14:37:28.295Z,12.52
2023-03-19T14:40:00.557Z,12.05
2023-03-19T14:42:32.266Z,11.40
2023-03-19T14:45:30.387Z,13.55
2023-03-19T14:48:10.414Z,11.15
2023-03-19T14:51:03.929Z,11.18
2023-03-19T14:53:40.147Z,10.68
2023-03-19T14:56:14.822Z,11.63
2023-03-19T14:58:50.623Z,12.25
2023-03-19T15:01:19.615Z,12.07
2023-03-19T15:03:52.864Z,12.90
2023-03-19T15:06:22.384Z,14.07
2023-03-19T15:08:51.178Z,16.27
2023-03-19T15:11:34.570Z,16.00
2023-03-19T15:14:19.879Z,15.13
2023-03-19T15:17:00.641Z,18.20
2023-03-19T15:19:32.534Z,16.80
2023-03-19T15:22:14.062Z,20.08
2023-03-19T15:24:42.395Z,21.55
2023-03-19T15:27:21.983Z,19.15
2023-03-19T15:29:51.738Z,19.92
2023-03-19T15:32:52.034Z,19.67
2023-03-19T15:35:24.070Z,18.70
2023-03-19T15:37:58.516Z,22.38
2023-03-19T15:40:30.344Z,25.58
2023-03-19T15:43:01.207Z,24.17
2023-03-19T15:45:30.532Z,25.92
2023-03-19T15:48:03.783Z,23.55
2023-03-19T15:50:34.483Z,23.88
2023-03-19T15:53:07.377Z,28.02
2023-03-19T15:55:36.958Z,27.88
2023-03-19T15:58:09.130Z,25.88
2023-03-19T16:00:40.279Z,27.35
2023-03-19T16:03:12.275Z,29.17
2023-03-19T16:05:40.342Z,28.42
2023-03-19T16:08:19.778Z,27.95
2023-03-19T16:10:48.224Z,27.10
2023-03-19T16:13:27.851Z,29.60
2023-03-19T16:16:06.871Z,28.55
2023-03-19T16:18:43.538Z,27.92
2023-03-19T16:21:16.664Z,25.98
2023-03-19T16:23:51.122Z,28.92
2023-03-19T16:26:23.199Z,31.45
2023-03-19T16:28:59.885Z,28.17
2023-03-19T16:31:32.098Z,29.67
2023-03-19T16:34:00.466Z,33.50
2023-03-19T16:36:31.252Z,29.60
2023-03-19T16:39:23.755Z,34.65
2023-03-19T16:42:15.754Z,28.63
2023-03-19T16:44:45.370Z,29.95
2023-03-19T16:47:18.320Z,29.13
2023-03-19T16:49:47.531Z,28.08
2023-03-19T16:52:17.590Z,31.30
2023-03-19T16:54:47.524Z,31.30
2023-03-19T16:57:17.903Z,32.97
2023-03-19T16:59:46.987Z,28.55
2023-03-19T17:02:16.609Z,29.73
2023-03-19T17:04:44.751Z,25.70
2023-03-19T17:07:13.808Z,26.30
2023-03-19T17:09:41.740Z,30.48
2023-03-19T17:12:17.140Z,23.25
2023-03-19T17:14:45.178Z,21.35
2023-03-19T17:17:18.926Z,16.50
2023-03-19T17:19:48.271Z,16.05
2023-03-19T17:22:16.231Z,16.98
2023-03-19T17:24:44.151Z,15.20
2023-03-19T17:27:13.388Z,14.88
2023-03-19T17:29:41.172Z,15.43
2023-03-19T17:32:18.962Z,14.45
2023-03-19T17:34:47.062Z,11.32
2023-03-19T17:37:15.427Z,13.52
2023-03-19T17:39:45.745Z,13.13
2023-03-19T17:42:20.914Z,12.90
2023-03-19T17:44:49.536Z,19.23
2023-03-19T17:47:19.572Z,15.02
2023-03-19T17:49:47.604Z,16.48
2023-03-19T17:52:17.276Z,16.20
2023-03-19T17:54:45.512Z,13.82
2023-03-19T17:57:14.810Z,12.80
2023-03-19T17:59:43.996Z,17.83
2023-03-19T18:02:25.668Z,17.48
2023-03-19T18:04:53.633Z,18.30
2023-03-19T18:07:21.393Z,14.55
2023-03-19T18:09:49.141Z,19.17
2023-03-19T18:12:17.078Z,17.95
2023-03-19T18:14:46.328Z,12.98
2023-03-19T18:17:17.902Z,14.32
2023-03-19T18:19:47.644Z,13.98
2023-03-19T18:22:17.241Z,12.48
2023-03-19T18:24:46.185Z,13.38
2023-03-19T18:27:14.652Z,15.43
2023-03-19T18:29:42.419Z,13.43
2023-03-19T18:32:17.080Z,13.27
2023-03-19T18:34:45.000Z,14.35
2023-03-19T18:37:17.080Z,12.27
2023-03-19T18:39:44.898Z,12.23
2023-03-19T18:42:14.402Z,11.07
2023-03-19T18:44:43.815Z,12.50
2023-03-19T18:47:16.304Z,11.77
2023-03-19T18:49:45.570Z,11.13
2023-03-19T18:52:19.301Z,12.40
2023-03-19T18:54:47.688Z,13.38
2023-03-19T18:57:17.090Z,12.55
2023-03-19T18:59:45.083Z,13.88
2023-03-19T19:02:29.402Z,14.40
2023-03-19T19:04:57.214Z,12.05
2023-03-19T19:07:25.013Z,13.45
2023-03-19T19:09:52.819Z,12.52
2023-03-19T19:12:21.171Z,12.80
2023-03-19T19:14:49.505Z,13.25
2023-03-19T19:17:19.184Z,11.05
2023-03-19T19:19:48.293Z,10.60
2023-03-19T19:22:16.941Z,14.68
2023-03-19T19:24:45.424Z,11.52
2023-03-19T19:27:18.093Z,12.15
2023-03-19T19:29:47.394Z,13.52
2023-03-19T19:32:25.681Z,9.98
2023-03-19T19:34:55.015Z,15.20
2023-03-19T19:37:23.582Z,11.80
2023-03-19T19:39:51.888Z,11.02
2023-03-19T19:42:22.181Z,13.73
2023-03-19T19:44:54.144Z,10.50
2023-03-19T19:47:22.039Z,12.13
2023-03-19T19:49:50.956Z,18.20
2023-03-19T19:52:20.672Z,13.73
2023-03-19T19:54:48.623Z,13.00
2023-03-19T19:57:19.633Z,13.60
2023-03-19T19:59:47.460Z,15.80
2023-03-19T20:02:23.140Z,13.80
2023-03-19T20:04:50.965Z,17.15
2023-03-19T20:07:20.144Z,14.00
2023-03-19T20:09:48.875Z,12.13
2023-03-19T20:12:22.355Z,14.82
2023-03-19T20:14:51.418Z,18.65
2023-03-19T20:17:20.908Z,10.75
2023-03-19T20:19:49.065Z,10.68
2023-03-19T20:22:16.930Z,8.25
2023-03-19T20:24:50.271Z,9.10
2023-03-19T20:27:22.327Z,6.95
2023-03-19T20:29:50.707Z,6.82
2023-03-19T20:32:28.280Z,7.25
2023-03-19T20:34:56.076Z,7.82
2023-03-19T20:37:23.794Z,8.57
2023-03-19T20:39:53.019Z,7.45
2023-03-19T20:42:21.300Z,8.23
2023-03-19T20:44:49.570Z,8.38
2023-03-19T20:47:19.410Z,10.90
2023-03-19T20:49:47.367Z,9.65
2023-03-19T20:52:16.392Z,7.35
2023-03-19T20:54:44.833Z,8.77
2023-03-19T20:57:16.675Z,10.13
2023-03-19T20:59:46.948Z,16.90
2023-03-19T21:02:19.893Z,15.50
2023-03-19T21:04:47.929Z,14.40
2023-03-19T21:07:28.644Z,21.10
2023-03-19T21:09:57.215Z,8.43
2023-03-19T21:12:29.422Z,17.20
2023-03-19T21:14:58.025Z,13.07
2023-03-19T21:17:27.344Z,8.95
2023-03-19T21:19:55.857Z,8.93
2023-03-19T21:22:26.500Z,18.25
2023-03-19T21:25:03.216Z,9.70
2023-03-19T21:27:34.897Z,8.05
2023-03-19T21:30:04.162Z,15.65
2023-03-19T21:32:32.125Z,10.20
2023-03-19T21:35:00.035Z,8.77
2023-03-19T21:37:27.984Z,7.93
2023-03-19T21:39:55.858Z,10.43
2023-03-19T21:42:24.374Z,5.53
2023-03-19T21:44:59.893Z,4.68
2023-03-19T21:47:27.691Z,7.47
2023-03-19T21:49:55.583Z,8.75
2023-03-19T21:52:23.339Z,7.38
2023-03-19T21:54:51.179Z,5.63
2023-03-19T21:57:19.400Z,6.65
2023-03-19T21:59:47.699Z,5.18
2023-03-19T22:02:39.595Z,6.10
2023-03-19T22:05:16.841Z,7.03
2023-03-19T22:07:44.665Z,4.75
2023-03-19T22:10:12.665Z,5.57
2023-03-19T22:12:42.653Z,6.18
2023-03-19T22:15:29.332Z,6.28
2023-03-19T22:17:59.877Z,7.13
2023-03-19T22:20:27.639Z,6.38
2023-03-19T22:22:56.475Z,6.65
2023-03-19T22:25:28.375Z,7.18
2023-03-19T22:27:56.831Z,5.40
2023-03-19T22:30:33.953Z,6.97
2023-03-19T22:33:04.066Z,5.18
2023-03-19T22:35:31.968Z,4.85
2023-03-19T22:37:59.810Z,4.53
2023-03-19T22:40:27.880Z,6.47
2023-03-19T22:42:55.721Z,4.80
2023-03-19T22:45:27.334Z,4.28
2023-03-19T22:47:56.837Z,3.75
2023-03-19T22:50:28.297Z,3.50
2023-03-19T22:52:57.224Z,3.60
2023-03-19T22:55:25.158Z,3.13
2023-03-19T22:57:52.882Z,2.80
2023-03-19T23:00:23.846Z,3.58
2023-03-19T23:02:57.431Z,3.58
2023-03-19T23:05:29.677Z,6.97
2023-03-19T23:07:57.839Z,4.07
2023-03-19T23:10:28.697Z,4.47
2023-03-19T23:12:57.491Z,2.58
2023-03-19T23:15:27.394Z,3.58
2023-03-19T23:17:57.965Z,3.33
2023-03-19T23:20:28.629Z,3.83
2023-03-19T23:22:56.611Z,4.10
2023-03-19T23:25:28.621Z,4.45
2023-03-19T23:28:00.297Z,4.95
2023-03-19T23:30:31.501Z,3.75
2023-03-19T23:33:01.365Z,3.92
2023-03-19T23:35:32.402Z,5.25
2023-03-19T23:38:01.875Z,5.15
2023-03-19T23:40:33.077Z,4.80
2023-03-19T23:43:02.506Z,5.78
2023-03-19T23:45:34.678Z,7.50
2023-03-19T23:48:04.734Z,8.48
2023-03-19T23:50:34.449Z,5.40
2023-03-19T23:53:02.625Z,5.00
2023-03-19T23:55:31.150Z,5.13
2023-03-19T23:57:59.467Z,6.70
